Time;durP1;ratioP1;P1;durP2;ratioP2;P2;SDS_P1;SDS_P2;PMS_P1;PMS_P2;Temp;Humidity;BMP_temperature;BMP_pressure;BME280_temperature;BME280_humidity;BME280_pressure;Samples;Min_cycle;Max_cycle;Signal;HPM_P1;HPM_P2
2021/06/03 00:00:38;;;;;;;;;;;;;;;12.27;50.00;101806.83;1593540;88;20225;-75
2021/06/03 00:03:06;;;;;;;;;;;;;;;12.23;50.16;101808.56;1596090;87;20147;-75
2021/06/03 00:05:35;;;;;;;;;;;;;;;12.13;50.27;101813.36;1596813;89;20168;-75
2021/06/03 00:08:02;;;;;;;;;;;;;;;12.03;50.42;101810.79;1575643;89;20136;-75
2021/06/03 00:10:31;;;;;;;;;;;;;;;11.97;50.56;101810.38;1608617;88;20230;-75
2021/06/03 00:12:58;;;;;;;;;;;;;;;11.94;50.64;101801.34;1587265;89;20228;-75
2021/06/03 00:15:25;;;;;;;;;;;;;;;11.98;50.69;101808.64;1616761;87;20196;-75
2021/06/03 00:17:51;;;;;;;;;;;;;;;11.96;50.70;101807.35;1582662;88;20198;-75
2021/06/03 00:20:20;;;;;;;;;;;;;;;11.98;50.76;101808.64;1590325;89;20161;-75
2021/06/03 00:23:02;;;;;;;;;;;;;;;11.98;50.79;101809.51;1580613;89;20510;-75
2021/06/03 00:25:29;;;;;;;;;;;;;;;11.97;50.74;101808.22;1610643;87;20169;-75
2021/06/03 00:27:56;;;;;;;;;;;;;;;11.92;50.76;101808.26;1585873;89;20182;-75
2021/06/03 00:30:24;;;;;;;;;;;;;;;11.88;50.83;101809.99;1586541;89;20225;-76
2021/06/03 00:32:50;;;;;;;;;;;;;;;11.78;50.84;101810.88;1611813;88;20168;-75
2021/06/03 00:35:18;;;;;;;;;;;;;;;11.70;51.05;101813.88;1608087;87;20186;-75
2021/06/03 00:37:44;;;;;;;;;;;;;;;11.65;51.15;101807.84;1613817;88;20114;-75
2021/06/03 00:40:12;;;;;;;;;;;;;;;11.59;51.26;101811.73;1587211;89;20096;-74
2021/06/03 00:42:40;;;;;;;;;;;;;;;11.59;51.35;101815.19;1617997;87;20212;-74
2021/06/03 00:45:10;;;;;;;;;;;;;;;11.60;51.41;101806.98;1614382;87;20175;-74
2021/06/03 00:47:36;;;;;;;;;;;;;;;11.57;51.38;101806.98;1587034;89;20145;-74
2021/06/03 00:50:10;;;;;;;;;;;;;;;11.48;51.54;101806.98;1612490;88;20102;-74
2021/06/03 00:52:36;;;;;;;;;;;;;;;11.38;51.66;101808.75;1587824;89;20134;-74
2021/06/03 00:55:03;;;;;;;;;;;;;;;11.25;51.84;101804.00;1594669;88;20140;-75
2021/06/03 00:57:30;;;;;;;;;;;;;;;11.23;51.97;101805.72;1594137;88;20152;-75
2021/06/03 00:59:56;;;;;;;;;;;;;;;11.26;52.06;101805.72;1602443;88;20175;-75
2021/06/03 01:02:22;;;;;;;;;;;;;;;11.25;52.07;101805.72;1606244;88;20628;-75
2021/06/03 01:04:48;;;;;;;;;;;;;;;11.25;52.19;101807.88;1604814;88;20094;-75
2021/06/03 01:07:14;;;;;;;;;;;;;;;11.21;52.19;101807.88;1602114;88;20114;-75
2021/06/03 01:09:49;;;;;;;;;;;;;;;11.19;52.36;101810.47;1606715;88;20880;-75
2021/06/03 01:12:31;;;;;;;;;;;;;;;11.15;52.42;101804.86;1605049;89;20147;-75
2021/06/03 01:15:01;;;;;;;;;;;;;;;11.17;52.47;101801.84;1608538;88;20150;-75
2021/06/03 01:17:27;;;;;;;;;;;;;;;11.18;52.50;101800.97;1600660;89;20182;-75
2021/06/03 01:19:54;;;;;;;;;;;;;;;11.16;52.47;101800.11;1603670;88;20141;-75
2021/06/03 01:22:26;;;;;;;;;;;;;;;11.16;52.46;101807.02;1602525;88;162020;-75
2021/06/03 01:24:56;;;;;;;;;;;;;;;11.14;52.44;101806.14;1595664;87;20184;-75
2021/06/03 01:27:26;;;;;;;;;;;;;;;11.08;52.49;101806.14;1607786;89;20114;-75
2021/06/03 01:29:56;;;;;;;;;;;;;;;11.04;52.58;101805.70;1607135;89;20138;-75
2021/06/03 01:32:23;;;;;;;;;;;;;;;10.98;52.68;101807.85;1606946;87;20106;-75
2021/06/03 01:34:49;;;;;;;;;;;;;;;10.97;52.77;101810.44;1620629;87;20153;-75
2021/06/03 01:37:16;;;;;;;;;;;;;;;10.93;52.84;101810.43;1593300;88;20350;-75
2021/06/03 01:39:44;;;;;;;;;;;;;;;10.92;52.93;101811.29;1604634;87;20336;-75
2021/06/03 01:42:15;;;;;;;;;;;;;;;10.92;52.96;101816.90;1607029;88;20114;-75
2021/06/03 01:44:42;;;;;;;;;;;;;;;10.90;53.00;101820.81;1606092;88;20173;-75
2021/06/03 01:47:09;;;;;;;;;;;;;;;10.86;53.09;101820.37;1602522;87;20234;-75
2021/06/03 01:49:35;;;;;;;;;;;;;;;10.83;53.21;101824.24;1618834;86;20319;-75
2021/06/03 01:52:03;;;;;;;;;;;;;;;10.79;53.25;101820.34;1641359;86;20141;-75
2021/06/03 01:54:31;;;;;;;;;;;;;;;10.77;53.33;101819.48;1641623;86;20444;-75
2021/06/03 01:56:57;;;;;;;;;;;;;;;10.70;53.27;101811.27;1632376;86;20178;-75
2021/06/03 01:59:23;;;;;;;;;;;;;;;10.62;53.33;101813.84;1654088;86;20959;-75
2021/06/03 02:01:50;;;;;;;;;;;;;;;10.59;53.46;101813.82;1655753;85;20348;-75
2021/06/03 02:04:16;;;;;;;;;;;;;;;10.56;53.47;101814.67;1644983;86;20150;-76
2021/06/03 02:06:47;;;;;;;;;;;;;;;10.53;53.60;101814.66;1644904;86;20480;-76
2021/06/03 02:09:13;;;;;;;;;;;;;;;10.47;53.68;101816.37;1636578;86;20133;-76
2021/06/03 02:11:40;;;;;;;;;;;;;;;10.45;53.76;101828.00;1643855;86;20105;-76
2021/06/03 02:14:17;;;;;;;;;;;;;;;10.45;53.87;101818.08;1643967;86;20106;-76
2021/06/03 02:16:49;;;;;;;;;;;;;;;10.46;53.85;101822.39;1643668;86;20130;-76
2021/06/03 02:19:23;;;;;;;;;;;;;;;10.48;53.83;101827.14;1648296;85;20134;-76
2021/06/03 02:21:53;;;;;;;;;;;;;;;10.44;53.82;101819.80;1622169;88;20111;-76
2021/06/03 02:24:20;;;;;;;;;;;;;;;10.40;53.96;101823.70;1597751;89;20110;-76
2021/06/03 02:26:47;;;;;;;;;;;;;;;10.36;54.04;101822.81;1625487;87;20110;-76
2021/06/03 02:29:15;;;;;;;;;;;;;;;10.26;54.14;101824.92;1616027;87;20106;-76
2021/06/03 02:31:42;;;;;;;;;;;;;;;10.25;54.38;101823.20;1615447;88;20101;-75
2021/06/03 02:34:08;;;;;;;;;;;;;;;10.26;54.38;101825.79;1590177;88;20132;-75
2021/06/03 02:36:42;;;;;;;;;;;;;;;10.27;54.40;101821.48;1591738;89;20101;-75
2021/06/03 02:39:08;;;;;;;;;;;;;;;10.28;54.42;101821.48;1634185;87;20222;-75
2021/06/03 02:41:34;;;;;;;;;;;;;;;10.28;54.51;101820.63;1612243;87;20450;-75
2021/06/03 02:44:06;;;;;;;;;;;;;;;10.28;54.65;101816.75;1616073;87;20130;-75
2021/06/03 02:46:32;;;;;;;;;;;;;;;10.32;54.71;101822.80;1608502;88;20102;-75
2021/06/03 02:48:59;;;;;;;;;;;;;;;10.34;54.68;101821.08;1637471;85;20108;-75
2021/06/03 02:51:27;;;;;;;;;;;;;;;10.34;54.68;101815.48;1642515;86;20098;-75
2021/06/03 02:53:53;;;;;;;;;;;;;;;10.30;54.76;101823.22;1642319;86;20429;-75
2021/06/03 02:56:19;;;;;;;;;;;;;;;10.31;54.88;101826.23;1643852;86;20148;-75
2021/06/03 02:58:45;;;;;;;;;;;;;;;10.30;54.90;101828.39;1644676;86;20147;-75
2021/06/03 03:01:11;;;;;;;;;;;;;;;10.31;54.96;101834.00;1647869;85;20113;-75
2021/06/03 03:03:39;;;;;;;;;;;;;;;10.32;55.03;101834.43;1642620;86;20137;-75
2021/06/03 03:06:05;;;;;;;;;;;;;;;10.28;55.02;101839.59;1643032;86;20134;-75
2021/06/03 03:08:31;;;;;;;;;;;;;;;10.26;55.14;101840.44;1643656;86;20097;-75
2021/06/03 03:10:58;;;;;;;;;;;;;;;10.28;55.23;101841.30;1645132;85;20109;-75
2021/06/03 03:13:24;;;;;;;;;;;;;;;10.36;55.25;101838.33;1644066;85;20657;-75
2021/06/03 03:15:51;;;;;;;;;;;;;;;10.42;55.25;101840.05;1651277;86;20109;-75
2021/06/03 03:18:17;;;;;;;;;;;;;;;10.46;55.29;101839.20;1643573;85;20252;-75
2021/06/03 03:20:43;;;;;;;;;;;;;;;10.51;55.40;101843.54;1643852;85;20109;-75
2021/06/03 03:23:11;;;;;;;;;;;;;;;10.57;55.40;101847.87;1643530;86;20109;-75
2021/06/03 03:25:38;;;;;;;;;;;;;;;10.60;55.40;101838.40;1643761;86;20408;-75
2021/06/03 03:28:05;;;;;;;;;;;;;;;10.65;55.51;101850.06;1633079;86;20109;-75
2021/06/03 03:30:41;;;;;;;;;;;;;;;10.69;55.60;101847.92;1644184;86;20122;-75
2021/06/03 03:33:12;;;;;;;;;;;;;;;10.71;55.63;101853.96;1641272;85;20100;-75
2021/06/03 03:35:40;;;;;;;;;;;;;;;10.77;55.66;101856.56;1642774;85;20109;-75
2021/06/03 03:38:06;;;;;;;;;;;;;;;10.84;55.70;101859.61;1640044;86;20121;-75
2021/06/03 03:40:32;;;;;;;;;;;;;;;10.87;55.73;101858.75;1643190;86;20109;-75
2021/06/03 03:42:58;;;;;;;;;;;;;;;10.89;55.75;101863.08;1639857;86;20732;-75
2021/06/03 03:45:26;;;;;;;;;;;;;;;10.92;55.81;101862.19;1638026;86;20149;-75
2021/06/03 03:47:53;;;;;;;;;;;;;;;10.96;55.86;101861.33;1639726;85;20173;-75
2021/06/03 03:50:21;;;;;;;;;;;;;;;11.02;55.91;101869.55;1635015;85;20138;-75
2021/06/03 03:52:48;;;;;;;;;;;;;;;11.07;55.98;101869.12;1624671;86;20114;-75
2021/06/03 03:55:15;;;;;;;;;;;;;;;11.13;56.01;101869.14;1632050;86;20077;-75
2021/06/03 03:57:44;;;;;;;;;;;;;;;11.18;56.09;101870.87;1630625;86;20168;-75
2021/06/03 04:00:17;;;;;;;;;;;;;;;11.26;56.17;101869.16;1634970;86;20090;-75
2021/06/03 04:02:43;;;;;;;;;;;;;;;11.36;56.22;101876.52;1636659;86;20615;-75
2021/06/03 04:05:15;;;;;;;;;;;;;;;11.56;56.45;101876.06;1634971;86;20134;-75
2021/06/03 04:07:43;;;;;;;;;;;;;;;11.90;56.64;101873.06;1637597;86;20133;-75
2021/06/03 04:10:12;;;;;;;;;;;;;;;12.32;56.65;101872.52;1642121;86;20140;-75
2021/06/03 04:12:39;;;;;;;;;;;;;;;12.69;56.42;101866.72;1635136;86;20548;-75
2021/06/03 04:15:06;;;;;;;;;;;;;;;12.91;56.12;101863.15;1639496;86;20182;-75
2021/06/03 04:17:33;;;;;;;;;;;;;;;13.00;55.96;101863.97;1639141;86;20126;-75
2021/06/03 04:20:00;;;;;;;;;;;;;;;13.04;55.93;101863.91;1638706;86;20122;-75
2021/06/03 04:22:26;;;;;;;;;;;;;;;13.11;55.95;101867.33;1639096;86;20097;-75
2021/06/03 04:24:52;;;;;;;;;;;;;;;13.19;56.02;101865.58;1628579;86;20181;-75
2021/06/03 04:27:18;;;;;;;;;;;;;;;13.24;56.00;101868.58;1639635;86;20118;-76
2021/06/03 04:29:44;;;;;;;;;;;;;;;13.28;56.05;101868.55;1639172;86;20852;-76
2021/06/03 04:32:11;;;;;;;;;;;;;;;13.31;56.04;101869.83;1639089;86;20113;-75
2021/06/03 04:34:39;;;;;;;;;;;;;;;13.37;56.11;101873.69;1629958;86;20526;-75
2021/06/03 04:37:05;;;;;;;;;;;;;;;13.41;56.14;101870.19;1619854;86;20136;-75
2021/06/03 04:39:32;;;;;;;;;;;;;;;13.49;56.15;101878.80;1617446;86;20124;-75
2021/06/03 04:41:58;;;;;;;;;;;;;;;13.55;56.13;101867.87;1632629;86;20120;-75
2021/06/03 04:44:24;;;;;;;;;;;;;;;13.65;56.11;101877.77;1629441;86;20148;-75
2021/06/03 04:46:50;;;;;;;;;;;;;;;13.69;56.01;101879.46;1625506;86;20159;-75
2021/06/03 04:49:16;;;;;;;;;;;;;;;13.74;56.02;101881.59;1629813;86;20097;-75
2021/06/03 04:51:43;;;;;;;;;;;;;;;13.83;56.11;101887.14;1616485;86;20104;-75
2021/06/03 04:54:09;;;;;;;;;;;;;;;13.96;56.18;101883.55;1625724;86;20094;-75
2021/06/03 04:56:35;;;;;;;;;;;;;;;14.11;56.15;101882.52;1629068;86;20130;-75
2021/06/03 04:59:02;;;;;;;;;;;;;;;14.33;56.26;101881.84;1623494;88;20797;-75
2021/06/03 05:01:28;;;;;;;;;;;;;;;14.74;56.28;101891.77;1625284;86;20102;-75
2021/06/03 05:03:54;;;;;;;;;;;;;;;15.35;56.75;101893.50;1639014;86;20166;-75
2021/06/03 05:06:20;;;;;;;;;;;;;;;16.06;56.71;101891.45;1605158;86;20190;-75
2021/06/03 05:08:48;;;;;;;;;;;;;;;16.83;56.45;101887.71;1603037;89;20097;-75
2021/06/03 05:11:14;;;;;;;;;;;;;;;17.49;55.78;101895.75;1607845;87;20691;-75
2021/06/03 05:13:40;;;;;;;;;;;;;;;18.13;55.62;101899.35;1599725;86;20149;-75
2021/06/03 05:16:07;;;;;;;;;;;;;;;18.82;55.31;101893.45;1593170;89;20168;-76
2021/06/03 05:18:34;;;;;;;;;;;;;;;19.44;55.18;101899.80;1622718;86;20163;-76
2021/06/03 05:21:00;;;;;;;;;;;;;;;19.87;54.60;101902.32;1618339;86;20141;-76
2021/06/03 05:23:27;;;;;;;;;;;;;;;20.26;54.16;101902.25;1626447;87;20556;-76
2021/06/03 05:25:53;;;;;;;;;;;;;;;20.72;54.21;101902.75;1628621;86;20110;-76
2021/06/03 05:28:19;;;;;;;;;;;;;;;21.22;53.95;101903.88;1621397;86;20121;-76
2021/06/03 05:30:46;;;;;;;;;;;;;;;21.84;53.95;101903.02;1622087;87;20418;-76
2021/06/03 05:33:12;;;;;;;;;;;;;;;22.44;53.54;101896.86;1619133;87;20120;-76
2021/06/03 05:35:38;;;;;;;;;;;;;;;22.89;53.40;101897.47;1619200;87;20161;-76
2021/06/03 05:38:04;;;;;;;;;;;;;;;23.38;53.08;101902.57;1604716;87;20172;-76
2021/06/03 05:40:30;;;;;;;;;;;;;;;23.78;52.77;101904.09;1605140;87;20185;-77
2021/06/03 05:42:57;;;;;;;;;;;;;;;24.11;52.61;101905.44;1598557;88;20105;-77
2021/06/03 05:45:24;;;;;;;;;;;;;;;24.43;52.54;101903.28;1601432;87;20171;-75
2021/06/03 05:47:53;;;;;;;;;;;;;;;24.88;52.46;101902.19;1605026;88;20451;-75
2021/06/03 05:50:20;;;;;;;;;;;;;;;25.27;52.30;101909.23;1605849;87;20483;-75
2021/06/03 05:52:47;;;;;;;;;;;;;;;25.64;52.06;101908.44;1591273;89;20422;-76
2021/06/03 05:55:15;;;;;;;;;;;;;;;25.96;51.95;101911.36;1606869;88;20102;-76
2021/06/03 05:57:41;;;;;;;;;;;;;;;26.37;52.02;101909.33;1634875;86;20146;-76
2021/06/03 06:00:12;;;;;;;;;;;;;;;26.48;51.62;101909.98;1630354;86;20128;-78
2021/06/03 06:02:47;;;;;;;;;;;;;;;26.79;51.40;101918.17;1638439;86;20578;-77
2021/06/03 06:07:56;;;;;;;;;;;;;;;26.87;50.92;101921.20;1633680;86;20114;-77
2021/06/03 06:10:22;;;;;;;;;;;;;;;27.09;50.71;101920.20;1631827;86;20814;-77
2021/06/03 06:12:48;;;;;;;;;;;;;;;27.19;50.96;101924.45;1626509;86;20436;-76
2021/06/03 06:15:15;;;;;;;;;;;;;;;27.50;50.85;101925.47;1623567;86;20112;-76
2021/06/03 06:17:41;;;;;;;;;;;;;;;27.77;50.50;101930.75;1621305;86;20515;-77
2021/06/03 06:20:11;;;;;;;;;;;;;;;28.06;50.22;101930.11;1622291;86;20227;-77
2021/06/03 06:22:37;;;;;;;;;;;;;;;28.32;50.06;101929.64;1623327;86;20430;-77
2021/06/03 06:25:04;;;;;;;;;;;;;;;28.58;49.69;101935.79;1619433;86;20452;-77
2021/06/03 06:27:30;;;;;;;;;;;;;;;28.66;49.63;101932.08;1634112;85;20447;-77
2021/06/03 06:29:56;;;;;;;;;;;;;;;28.48;49.23;101937.40;1623643;86;20555;-76
2021/06/03 06:32:22;;;;;;;;;;;;;;;28.48;48.90;101936.06;1630896;86;20534;-77
2021/06/03 06:34:48;;;;;;;;;;;;;;;28.58;48.72;101938.45;1624358;86;20787;-76
2021/06/03 06:37:14;;;;;;;;;;;;;;;28.51;48.20;101930.05;1629772;86;20443;-77
2021/06/03 06:39:42;;;;;;;;;;;;;;;28.44;48.17;101936.77;1624327;86;20579;-76
2021/06/03 06:42:08;;;;;;;;;;;;;;;28.61;47.84;101940.87;1635725;86;20390;-76
2021/06/03 06:44:34;;;;;;;;;;;;;;;28.68;47.76;101939.47;1635483;86;20138;-76
2021/06/03 06:47:01;;;;;;;;;;;;;;;28.37;47.40;101937.30;1638342;86;20480;-76
2021/06/03 06:49:27;;;;;;;;;;;;;;;28.29;47.47;101938.68;1626048;86;20137;-76
2021/06/03 06:51:53;;;;;;;;;;;;;;;28.32;47.05;101944.27;1630640;86;20745;-76
2021/06/03 06:54:19;;;;;;;;;;;;;;;28.38;46.81;101939.00;1600950;88;20799;-76
2021/06/03 06:56:45;;;;;;;;;;;;;;;28.41;46.48;101943.62;1607366;87;20129;-76
2021/06/03 06:59:11;;;;;;;;;;;;;;;28.14;46.28;101941.52;1606207;87;20736;-76
2021/06/03 07:01:37;;;;;;;;;;;;;;;28.05;46.23;101941.70;1605162;87;20547;-76
2021/06/03 07:04:04;;;;;;;;;;;;;;;28.19;46.06;101942.91;1610114;87;20523;-76
2021/06/03 07:06:30;;;;;;;;;;;;;;;28.36;45.84;101938.25;1600153;87;20414;-77
2021/06/03 07:08:56;;;;;;;;;;;;;;;28.36;45.72;101939.11;1600994;87;20540;-77
2021/06/03 07:11:24;;;;;;;;;;;;;;;28.56;45.68;101937.71;1597481;88;20105;-77
2021/06/03 07:13:50;;;;;;;;;;;;;;;28.73;45.27;101935.15;1604694;87;20531;-77
2021/06/03 07:16:17;;;;;;;;;;;;;;;28.87;45.08;101941.70;1612539;87;20566;-77
2021/06/03 07:18:44;;;;;;;;;;;;;;;28.90;44.82;101939.67;1602100;87;20180;-76
2021/06/03 07:21:10;;;;;;;;;;;;;;;28.86;44.92;101940.85;1606551;88;20143;-76
2021/06/03 07:23:36;;;;;;;;;;;;;;;28.96;44.71;101943.23;1598770;88;20594;-76
2021/06/03 07:26:02;;;;;;;;;;;;;;;29.07;44.58;101933.61;1606033;88;20448;-75
2021/06/03 07:28:29;;;;;;;;;;;;;;;29.03;44.67;101940.12;1602963;87;20472;-75
2021/06/03 07:30:55;;;;;;;;;;;;;;;29.08;44.64;101930.83;1598286;88;20507;-75
2021/06/03 07:33:21;;;;;;;;;;;;;;;29.23;44.58;101937.66;1603975;88;20148;-77
2021/06/03 07:35:47;;;;;;;;;;;;;;;29.44;44.38;101933.08;1616794;87;20439;-76
2021/06/03 07:38:14;;;;;;;;;;;;;;;29.77;44.28;101939.00;1612166;87;20416;-76
2021/06/03 07:40:42;;;;;;;;;;;;;;;30.06;44.05;101940.80;1606040;87;20523;-76
2021/06/03 07:43:12;;;;;;;;;;;;;;;30.10;43.46;101943.60;1595794;88;20569;-75
2021/06/03 07:45:38;;;;;;;;;;;;;;;30.14;43.08;101944.58;1621018;87;20449;-75
2021/06/03 07:48:05;;;;;;;;;;;;;;;30.08;42.86;101951.72;1618882;86;20469;-76
2021/06/03 07:50:33;;;;;;;;;;;;;;;30.07;42.53;101951.84;1602778;89;20523;-76
2021/06/03 07:53:01;;;;;;;;;;;;;;;29.89;42.21;101952.25;1635764;86;20509;-76
2021/06/03 07:55:27;;;;;;;;;;;;;;;29.84;42.16;101954.41;1631463;87;20404;-76
2021/06/03 07:57:57;;;;;;;;;;;;;;;29.88;41.77;101956.36;1633491;87;20114;-76
2021/06/03 08:00:25;;;;;;;;;;;;;;;29.85;41.64;101951.27;1638358;86;20531;-76
2021/06/03 08:02:51;;;;;;;;;;;;;;;29.59;41.87;101961.26;1636503;86;20169;-76
2021/06/03 08:05:20;;;;;;;;;;;;;;;29.23;41.35;101954.13;1624002;86;20412;-76
2021/06/03 08:07:47;;;;;;;;;;;;;;;29.03;41.47;101952.10;1630397;87;20506;-76
2021/06/03 08:10:15;;;;;;;;;;;;;;;29.09;41.39;101954.32;1633168;86;20106;-76
2021/06/03 08:12:42;;;;;;;;;;;;;;;29.02;40.93;101955.25;1636483;86;20505;-76
2021/06/03 08:15:10;;;;;;;;;;;;;;;29.01;40.74;101959.35;1644860;86;20524;-75
2021/06/03 08:17:36;;;;;;;;;;;;;;;28.94;40.53;101962.45;1638049;86;20519;-75
2021/06/03 08:20:08;;;;;;;;;;;;;;;28.87;40.86;101956.34;1638406;86;20102;-75
2021/06/03 08:22:34;;;;;;;;;;;;;;;28.73;39.94;101955.12;1633976;87;20089;-75
2021/06/03 08:25:00;;;;;;;;;;;;;;;28.51;39.81;101963.31;1628063;86;20546;-75
2021/06/03 08:27:27;;;;;;;;;;;;;;;28.14;39.65;101964.98;1636486;86;20533;-75
2021/06/03 08:29:53;;;;;;;;;;;;;;;28.00;39.74;101963.77;1637980;87;20113;-75
2021/06/03 08:32:19;;;;;;;;;;;;;;;27.90;39.70;101970.66;1652349;86;20218;-75
2021/06/03 08:34:46;;;;;;;;;;;;;;;27.69;39.46;101972.47;1638025;87;20110;-75
2021/06/03 08:37:12;;;;;;;;;;;;;;;27.52;39.46;101962.56;1638472;86;20160;-75
2021/06/03 08:39:38;;;;;;;;;;;;;;;27.52;39.56;101967.88;1630684;85;20819;-75
2021/06/03 08:42:05;;;;;;;;;;;;;;;27.48;39.38;101965.05;1638878;87;20485;-76
2021/06/03 08:44:31;;;;;;;;;;;;;;;27.47;39.46;101963.34;1655242;86;20130;-76
2021/06/03 08:46:57;;;;;;;;;;;;;;;27.38;38.82;101960.81;1649538;86;20528;-76
2021/06/03 08:49:24;;;;;;;;;;;;;;;27.09;38.78;101957.86;1637816;87;20140;-76
2021/06/03 08:52:02;;;;;;;;;;;;;;;26.70;38.32;101952.78;1634054;86;20130;-76
2021/06/03 08:54:24;;;;;;;;;;;;;;;26.31;38.17;101954.79;1620342;86;20126;-76
2021/06/03 08:56:50;;;;;;;;;;;;;;;26.49;38.12;101959.45;1628654;87;20098;-76
2021/06/03 08:59:16;;;;;;;;;;;;;;;26.79;37.93;101946.90;1635554;86;20265;-76
2021/06/03 09:01:42;;;;;;;;;;;;;;;27.32;38.27;101957.23;1635379;86;20192;-76
2021/06/03 09:04:09;;;;;;;;;;;;;;;27.54;37.97;101957.53;1629075;87;20103;-76
2021/06/03 09:06:35;;;;;;;;;;;;;;;27.36;37.87;101953.42;1626899;86;20134;-76
2021/06/03 09:09:01;;;;;;;;;;;;;;;27.15;37.92;101964.10;1609487;88;20105;-76
2021/06/03 09:11:29;;;;;;;;;;;;;;;27.26;37.51;101953.16;1609367;88;20108;-76
2021/06/03 09:13:57;;;;;;;;;;;;;;;27.31;37.61;101958.18;1596038;89;20161;-75
2021/06/03 09:16:28;;;;;;;;;;;;;;;27.41;37.31;101959.28;1598513;87;20148;-75
2021/06/03 09:18:58;;;;;;;;;;;;;;;27.48;37.34;101958.41;1607580;87;20116;-75
2021/06/03 09:21:29;;;;;;;;;;;;;;;27.44;37.16;101960.89;1598951;87;20119;-75
2021/06/03 09:23:59;;;;;;;;;;;;;;;27.04;36.79;101968.30;1608972;87;20097;-75
2021/06/03 09:26:26;;;;;;;;;;;;;;;26.45;37.12;101962.76;1609296;87;20129;-75
2021/06/03 09:28:54;;;;;;;;;;;;;;;26.05;36.84;101963.80;1609323;87;20096;-75
2021/06/03 09:31:23;;;;;;;;;;;;;;;25.89;36.87;101960.84;1610939;87;20129;-75
2021/06/03 09:34:01;;;;;;;;;;;;;;;25.79;36.96;101964.51;1608865;88;20105;-75
2021/06/03 09:36:37;;;;;;;;;;;;;;;25.68;36.79;101958.98;1609398;88;20109;-75
2021/06/03 09:39:15;;;;;;;;;;;;;;;25.58;36.51;101958.62;1610613;87;20150;-75
2021/06/03 09:41:44;;;;;;;;;;;;;;;25.48;36.52;101948.64;1607289;87;20112;-75
2021/06/03 09:44:17;;;;;;;;;;;;;;;25.39;36.34;101957.99;1609528;88;20089;-75
2021/06/03 09:46:45;;;;;;;;;;;;;;;25.28;36.15;101955.09;1604244;88;20110;-75
2021/06/03 09:49:20;;;;;;;;;;;;;;;25.20;36.13;101956.84;1610664;87;20109;-75
2021/06/03 09:51:48;;;;;;;;;;;;;;;25.10;36.00;101945.53;1611329;88;20092;-75
2021/06/03 09:54:19;;;;;;;;;;;;;;;24.93;35.78;101963.19;1623945;87;20441;-75
2021/06/03 09:56:46;;;;;;;;;;;;;;;24.80;35.88;101944.95;1624320;87;20124;-75
2021/06/03 09:59:22;;;;;;;;;;;;;;;24.73;35.54;101946.22;1621801;87;20117;-75
2021/06/03 10:02:00;;;;;;;;;;;;;;;24.70;35.75;101941.09;1628654;86;20110;-75
2021/06/03 10:04:33;;;;;;;;;;;;;;;24.77;35.84;101936.33;1634445;86;20106;-75
2021/06/03 10:07:02;;;;;;;;;;;;;;;24.83;36.01;101931.55;1632035;86;20097;-75
2021/06/03 10:09:41;;;;;;;;;;;;;;;24.76;35.54;101928.85;1636762;85;20097;-75
2021/06/03 10:12:11;;;;;;;;;;;;;;;24.62;35.60;101925.63;1636819;86;20130;-75
2021/06/03 10:14:38;;;;;;;;;;;;;;;24.51;35.81;101923.17;1634353;86;20122;-75
2021/06/03 10:17:16;;;;;;;;;;;;;;;24.55;35.49;101937.95;1634726;86;20114;-75
2021/06/03 10:19:45;;;;;;;;;;;;;;;24.49;35.58;101925.05;1645160;86;20102;-75
2021/06/03 10:22:20;;;;;;;;;;;;;;;24.51;35.38;101931.11;1634856;86;20130;-75
2021/06/03 10:24:52;;;;;;;;;;;;;;;24.43;35.23;101928.05;1634332;86;20130;-75
2021/06/03 10:27:20;;;;;;;;;;;;;;;24.45;35.56;101921.70;1636120;86;20114;-75
2021/06/03 10:29:48;;;;;;;;;;;;;;;24.43;35.38;101924.94;1629630;86;20090;-75
2021/06/03 10:32:16;;;;;;;;;;;;;;;24.47;35.61;101928.23;1634629;86;20127;-75
2021/06/03 10:34:43;;;;;;;;;;;;;;;24.54;35.32;101929.16;1631674;86;20598;-75
2021/06/03 10:37:12;;;;;;;;;;;;;;;24.62;35.33;101931.39;1634447;86;20093;-75
2021/06/03 10:39:40;;;;;;;;;;;;;;;24.65;35.21;101922.82;1634307;86;20130;-75
2021/06/03 10:42:06;;;;;;;;;;;;;;;24.67;35.28;101925.39;1634622;86;20106;-75
2021/06/03 10:44:32;;;;;;;;;;;;;;;24.58;35.10;101928.52;1634593;87;20106;-75
2021/06/03 10:46:58;;;;;;;;;;;;;;;24.43;34.96;101927.58;1634246;87;20103;-75
2021/06/03 10:49:28;;;;;;;;;;;;;;;24.40;35.18;101923.78;1634746;86;20113;-75
2021/06/03 10:51:54;;;;;;;;;;;;;;;24.43;35.25;101925.41;1643808;86;20134;-75
2021/06/03 10:54:39;;;;;;;;;;;;;;;24.33;35.02;101930.32;1660436;86;20106;-75
2021/06/03 10:57:05;;;;;;;;;;;;;;;24.35;35.22;101921.84;1657496;85;20123;-75
2021/06/03 10:59:32;;;;;;;;;;;;;;;24.36;35.06;101924.41;1660362;85;20106;-75
2021/06/03 11:01:59;;;;;;;;;;;;;;;24.31;35.00;101926.91;1629490;87;21107;-75
2021/06/03 11:04:27;;;;;;;;;;;;;;;24.21;34.74;101930.93;1625363;86;20098;-75
2021/06/03 11:06:53;;;;;;;;;;;;;;;24.02;34.77;101922.63;1658053;85;20157;-75
2021/06/03 11:09:26;;;;;;;;;;;;;;;23.93;34.83;101919.13;1654704;86;20118;-75
2021/06/03 11:12:06;;;;;;;;;;;;;;;23.92;34.96;101921.39;1669934;84;20095;-75
2021/06/03 11:14:32;;;;;;;;;;;;;;;23.88;34.89;101922.97;1667959;85;20113;-75
2021/06/03 11:17:00;;;;;;;;;;;;;;;23.86;34.85;101923.52;1673089;85;20128;-75
2021/06/03 11:19:27;;;;;;;;;;;;;;;23.90;34.84;101910.55;1673769;84;20114;-75
2021/06/03 11:21:58;;;;;;;;;;;;;;;23.92;34.96;101900.72;1659931;86;20097;-75
2021/06/03 11:24:32;;;;;;;;;;;;;;;23.90;34.79;101913.19;1636158;86;20122;-75
2021/06/03 11:27:00;;;;;;;;;;;;;;;23.75;34.85;101914.81;1633919;86;20109;-75
2021/06/03 11:29:29;;;;;;;;;;;;;;;23.66;34.83;101909.98;1660216;86;20126;-75
2021/06/03 11:32:08;;;;;;;;;;;;;;;23.65;34.84;101912.23;1640891;85;20138;-75
2021/06/03 11:34:43;;;;;;;;;;;;;;;23.62;34.92;101911.93;1660229;85;20114;-75
2021/06/03 11:37:15;;;;;;;;;;;;;;;23.59;34.78;101901.52;1649544;85;20461;-75
2021/06/03 11:39:47;;;;;;;;;;;;;;;23.50;34.72;101903.26;1660225;85;20134;-75
2021/06/03 11:42:37;;;;;;;;;;;;;;;23.40;34.86;101898.04;1660453;86;20097;-75
2021/06/03 11:45:12;;;;;;;;;;;;;;;23.41;34.80;101901.07;1659267;85;20089;-75
2021/06/03 11:47:46;;;;;;;;;;;;;;;23.41;34.96;101898.43;1630275;87;20113;-75
2021/06/03 11:50:18;;;;;;;;;;;;;;;23.42;34.82;101890.90;1660656;86;20133;-75
2021/06/03 11:52:59;;;;;;;;;;;;;;;23.43;34.89;101896.11;1641076;86;20102;-75
2021/06/03 11:55:33;;;;;;;;;;;;;;;23.44;34.67;101885.08;1619526;88;20113;-75
2021/06/03 11:58:26;;;;;;;;;;;;;;;23.39;34.75;101886.66;1618088;86;20090;-75
2021/06/03 12:00:55;;;;;;;;;;;;;;;23.41;34.49;101875.99;1609426;88;20161;-75
2021/06/03 12:03:28;;;;;;;;;;;;;;;23.36;34.70;101871.44;1604449;85;350831;-75
2021/06/03 12:05:57;;;;;;;;;;;;;;;23.41;34.78;101875.99;1620240;87;20422;-75
2021/06/03 12:08:35;;;;;;;;;;;;;;;23.45;34.81;101874.45;1628200;86;20110;-75
2021/06/03 12:11:02;;;;;;;;;;;;;;;23.41;34.52;101878.63;1619734;86;20109;-75
2021/06/03 12:13:29;;;;;;;;;;;;;;;23.36;34.59;101876.25;1609699;88;20129;-75
2021/06/03 12:15:55;;;;;;;;;;;;;;;23.37;34.66;101878.42;1613250;88;20172;-75
2021/06/03 12:18:21;;;;;;;;;;;;;;;23.36;34.48;101870.12;1621798;88;20152;-75
2021/06/03 12:20:47;;;;;;;;;;;;;;;23.39;34.65;101870.82;1627492;87;20184;-75
2021/06/03 12:23:13;;;;;;;;;;;;;;;23.47;34.72;101862.48;1608316;88;20134;-75
2021/06/03 12:25:41;;;;;;;;;;;;;;;23.53;34.55;101856.93;1624406;87;20161;-75
2021/06/03 12:28:10;;;;;;;;;;;;;;;23.59;34.58;101857.95;1614256;88;20135;-75
2021/06/03 12:30:38;;;;;;;;;;;;;;;23.62;34.48;101853.83;1606908;88;20307;-75
2021/06/03 12:33:24;;;;;;;;;;;;;;;23.57;34.47;101851.89;1620137;87;20164;-75
2021/06/03 12:35:58;;;;;;;;;;;;;;;23.48;34.52;101847.03;1604879;88;20193;-75
2021/06/03 12:38:41;;;;;;;;;;;;;;;23.51;34.54;101848.67;1605416;88;20213;-75
2021/06/03 12:41:11;;;;;;;;;;;;;;;23.56;34.56;101846.22;1626727;88;20462;-75
2021/06/03 12:43:42;;;;;;;;;;;;;;;23.57;34.31;101849.71;1613784;88;22160;-75